sensor_id;sensor_type;location;lat;lon;timestamp;pressure;altitude;pressure_sealevel;temperature;humidity
51299;BME280;37382;45.192;9.790;2023-06-22T00:01:22;101437.22;;;25.48;100.00
51299;BME280;37382;45.192;9.790;2023-06-22T00:03:50;101434.72;;;25.11;100.00
51299;BME280;37382;45.192;9.790;2023-06-22T00:06:18;101432.81;;;25.37;100.00
51299;BME280;37382;45.192;9.790;2023-06-22T00:08:45;101434.44;;;25.22;100.00
51299;BME280;37382;45.192;9.790;2023-06-22T00:11:13;101431.41;;;25.45;100.00
51299;BME280;37382;45.192;9.790;2023-06-22T00:13:41;101441.97;;;25.27;100.00
51299;BME280;37382;45.192;9.790;2023-06-22T00:16:08;101440.59;;;25.35;100.00
51299;BME280;37382;45.192;9.790;2023-06-22T00:18:35;101433.31;;;25.44;100.00
51299;BME280;37382;45.192;9.790;2023-06-22T00:21:03;101442.81;;;25.38;100.00
51299;BME280;37382;45.192;9.790;2023-06-22T00:23:31;101435.56;;;25.16;100.00
51299;BME280;37382;45.192;9.790;2023-06-22T00:26:02;101440.31;;;25.36;100.00
51299;BME280;37382;45.192;9.790;2023-06-22T00:28:29;101443.63;;;25.28;100.00
51299;BME280;37382;45.192;9.790;2023-06-22T00:30:57;101442.53;;;25.45;100.00
51299;BME280;37382;45.192;9.790;2023-06-22T00:33:25;101440.28;;;25.21;100.00
51299;BME280;37382;45.192;9.790;2023-06-22T00:35:53;101434.72;;;25.21;100.00
51299;BME280;37382;45.192;9.790;2023-06-22T00:38:21;101437.53;;;25.31;100.00
51299;BME280;37382;45.192;9.790;2023-06-22T00:40:49;101449.47;;;24.91;100.00
51299;BME280;37382;45.192;9.790;2023-06-22T00:43:16;101451.16;;;24.92;100.00
51299;BME280;37382;45.192;9.790;2023-06-22T00:45:44;101437.81;;;25.25;100.00
51299;BME280;37382;45.192;9.790;2023-06-22T00:48:12;101439.19;;;25.48;100.00
51299;BME280;37382;45.192;9.790;2023-06-22T00:50:40;101436.16;;;25.34;100.00
51299;BME280;37382;45.192;9.790;2023-06-22T00:53:08;101438.94;;;25.34;100.00
51299;BME280;37382;45.192;9.790;2023-06-22T00:55:42;101441.72;;;25.08;100.00
51299;BME280;37382;45.192;9.790;2023-06-22T00:58:11;101425.81;;;25.14;100.00
51299;BME280;37382;45.192;9.790;2023-06-22T01:00:41;101430.28;;;25.41;100.00
51299;BME280;37382;45.192;9.790;2023-06-22T01:03:09;101442.25;;;24.90;100.00
51299;BME280;37382;45.192;9.790;2023-06-22T01:05:39;101433.34;;;25.24;100.00
51299;BME280;37382;45.192;9.790;2023-06-22T01:08:26;101435.56;;;25.01;100.00
51299;BME280;37382;45.192;9.790;2023-06-22T01:11:19;101444.47;;;25.03;100.00
51299;BME280;37382;45.192;9.790;2023-06-22T01:13:56;101442.53;;;24.93;100.00
51299;BME280;37382;45.192;9.790;2023-06-22T01:16:31;101445.59;;;24.86;100.00
51299;BME280;37382;45.192;9.790;2023-06-22T01:19:03;101434.44;;;24.81;100.00
51299;BME280;37382;45.192;9.790;2023-06-22T01:21:32;101442.78;;;24.66;100.00
51299;BME280;37382;45.192;9.790;2023-06-22T01:26:41;101452.81;;;24.88;100.00
51299;BME280;37382;45.192;9.790;2023-06-22T01:29:11;101448.94;;;25.04;100.00
51299;BME280;37382;45.192;9.790;2023-06-22T01:31:42;101445.59;;;25.02;100.00
51299;BME280;37382;45.192;9.790;2023-06-22T01:34:12;101449.78;;;24.99;100.00
51299;BME280;37382;45.192;9.790;2023-06-22T01:36:40;101451.16;;;25.12;100.00
51299;BME280;37382;45.192;9.790;2023-06-22T01:39:08;101442.81;;;25.02;100.00
51299;BME280;37382;45.192;9.790;2023-06-22T01:41:37;101447.53;;;24.96;100.00
51299;BME280;37382;45.192;9.790;2023-06-22T01:44:06;101455.84;;;24.76;100.00
51299;BME280;37382;45.192;9.790;2023-06-22T01:46:36;101446.94;;;24.58;100.00
51299;BME280;37382;45.192;9.790;2023-06-22T01:49:04;101455.88;;;24.65;100.00
51299;BME280;37382;45.192;9.790;2023-06-22T01:51:33;101457.53;;;24.61;100.00
51299;BME280;37382;45.192;9.790;2023-06-22T01:54:01;101455.34;;;25.10;100.00
51299;BME280;37382;45.192;9.790;2023-06-22T01:56:29;101457.28;;;25.19;100.00
51299;BME280;37382;45.192;9.790;2023-06-22T01:59:21;101441.16;;;25.21;100.00
51299;BME280;37382;45.192;9.790;2023-06-22T02:02:04;101443.09;;;24.90;100.00
51299;BME280;37382;45.192;9.790;2023-06-22T02:05:02;101458.91;;;24.69;100.00
51299;BME280;37382;45.192;9.790;2023-06-22T02:08:00;101447.53;;;24.86;100.00
51299;BME280;37382;45.192;9.790;2023-06-22T02:10:26;101452.81;;;24.82;100.00
51299;BME280;37382;45.192;9.790;2023-06-22T02:12:58;101450.84;;;24.62;100.00
51299;BME280;37382;45.192;9.790;2023-06-22T02:15:27;101455.22;;;24.43;100.00
51299;BME280;37382;45.192;9.790;2023-06-22T02:17:55;101454.88;;;24.24;100.00
51299;BME280;37382;45.192;9.790;2023-06-22T02:20:24;101446.84;;;24.27;100.00
51299;BME280;37382;45.192;9.790;2023-06-22T02:22:51;101449.34;;;24.39;100.00
51299;BME280;37382;45.192;9.790;2023-06-22T02:25:19;101454.91;;;24.39;100.00
51299;BME280;37382;45.192;9.790;2023-06-22T02:27:47;101454.63;;;24.36;100.00
51299;BME280;37382;45.192;9.790;2023-06-22T02:30:17;101455.50;;;24.46;100.00
51299;BME280;37382;45.192;9.790;2023-06-22T02:32:45;101453.81;;;24.45;100.00
51299;BME280;37382;45.192;9.790;2023-06-22T02:35:15;101463.53;;;24.38;100.00
51299;BME280;37382;45.192;9.790;2023-06-22T02:37:42;101453.84;;;24.50;100.00
51299;BME280;37382;45.192;9.790;2023-06-22T02:40:10;101453.25;;;24.43;100.00
51299;BME280;37382;45.192;9.790;2023-06-22T02:42:39;101456.28;;;24.31;100.00
51299;BME280;37382;45.192;9.790;2023-06-22T02:45:07;101455.72;;;24.29;100.00
51299;BME280;37382;45.192;9.790;2023-06-22T02:47:35;101459.06;;;24.21;100.00
51299;BME280;37382;45.192;9.790;2023-06-22T02:50:03;101448.22;;;24.30;100.00
51299;BME280;37382;45.192;9.790;2023-06-22T02:52:33;101453.50;;;24.31;100.00
51299;BME280;37382;45.192;9.790;2023-06-22T02:55:01;101444.41;;;24.51;100.00
51299;BME280;37382;45.192;9.790;2023-06-22T02:57:30;101446.03;;;24.37;100.00
51299;BME280;37382;45.192;9.790;2023-06-22T02:59:57;101444.06;;;24.27;100.00
51299;BME280;37382;45.192;9.790;2023-06-22T03:02:25;101440.19;;;24.33;100.00
51299;BME280;37382;45.192;9.790;2023-06-22T03:04:53;101440.19;;;24.33;100.00
51299;BME280;37382;45.192;9.790;2023-06-22T03:07:21;101438.69;;;24.05;100.00
51299;BME280;37382;45.192;9.790;2023-06-22T03:09:51;101444.34;;;24.26;100.00
51299;BME280;37382;45.192;9.790;2023-06-22T03:12:19;101443.47;;;24.25;100.00
51299;BME280;37382;45.192;9.790;2023-06-22T03:14:51;101445.59;;;24.03;100.00
51299;BME280;37382;45.192;9.790;2023-06-22T03:17:19;101449.25;;;24.08;100.00
51299;BME280;37382;45.192;9.790;2023-06-22T03:19:46;101444.56;;;24.19;100.00
51299;BME280;37382;45.192;9.790;2023-06-22T03:22:14;101449.50;;;24.02;100.00
51299;BME280;37382;45.192;9.790;2023-06-22T03:24:42;101449.91;;;24.36;100.00
51299;BME280;37382;45.192;9.790;2023-06-22T03:27:10;101456.97;;;23.96;100.00
51299;BME280;37382;45.192;9.790;2023-06-22T03:29:37;101450.97;;;24.20;100.00
51299;BME280;37382;45.192;9.790;2023-06-22T03:32:05;101453.16;;;24.12;100.00
51299;BME280;37382;45.192;9.790;2023-06-22T03:34:33;101455.44;;;24.26;100.00
51299;BME280;37382;45.192;9.790;2023-06-22T03:37:03;101467.13;;;24.33;100.00
51299;BME280;37382;45.192;9.790;2023-06-22T03:39:31;101462.47;;;24.54;100.00
51299;BME280;37382;45.192;9.790;2023-06-22T03:41:58;101465.59;;;24.63;100.00
51299;BME280;37382;45.192;9.790;2023-06-22T03:44:26;101478.59;;;24.57;100.00
51299;BME280;37382;45.192;9.790;2023-06-22T03:46:54;101484.44;;;24.56;100.00
51299;BME280;37382;45.192;9.790;2023-06-22T03:49:22;101480.63;;;24.67;100.00
51299;BME280;37382;45.192;9.790;2023-06-22T03:51:49;101475.63;;;24.84;100.00
51299;BME280;37382;45.192;9.790;2023-06-22T03:54:17;101473.44;;;24.92;100.00
51299;BME280;37382;45.192;9.790;2023-06-22T03:56:44;101474.53;;;24.85;100.00
51299;BME280;37382;45.192;9.790;2023-06-22T03:59:12;101466.72;;;24.67;100.00
51299;BME280;37382;45.192;9.790;2023-06-22T04:01:39;101460.22;;;24.46;100.00
51299;BME280;37382;45.192;9.790;2023-06-22T04:04:07;101455.00;;;24.60;100.00
51299;BME280;37382;45.192;9.790;2023-06-22T04:06:35;101456.47;;;24.88;100.00
51299;BME280;37382;45.192;9.790;2023-06-22T04:09:03;101453.94;;;24.81;100.00
51299;BME280;37382;45.192;9.790;2023-06-22T04:11:30;101445.00;;;24.74;100.00
51299;BME280;37382;45.192;9.790;2023-06-22T04:13:57;101441.69;;;24.72;100.00
51299;BME280;37382;45.192;9.790;2023-06-22T04:16:25;101445.03;;;24.79;100.00
51299;BME280;37382;45.192;9.790;2023-06-22T04:18:52;101447.72;;;24.54;100.00
51299;BME280;37382;45.192;9.790;2023-06-22T04:21:19;101455.06;;;25.16;100.00
51299;BME280;37382;45.192;9.790;2023-06-22T04:23:47;101464.22;;;25.01;100.00
51299;BME280;37382;45.192;9.790;2023-06-22T04:26:14;101464.13;;;24.40;100.00
51299;BME280;37382;45.192;9.790;2023-06-22T04:28:42;101456.13;;;24.69;100.00
51299;BME280;37382;45.192;9.790;2023-06-22T04:31:09;101450.88;;;24.78;100.00
51299;BME280;37382;45.192;9.790;2023-06-22T04:33:38;101444.50;;;24.93;100.00
51299;BME280;37382;45.192;9.790;2023-06-22T04:36:07;101443.09;;;24.85;100.00
51299;BME280;37382;45.192;9.790;2023-06-22T04:38:35;101437.25;;;25.02;100.00
51299;BME280;37382;45.192;9.790;2023-06-22T04:41:02;101431.69;;;25.17;100.00
51299;BME280;37382;45.192;9.790;2023-06-22T04:43:30;101432.25;;;25.14;100.00
51299;BME280;37382;45.192;9.790;2023-06-22T04:45:58;101427.22;;;25.11;100.00
51299;BME280;37382;45.192;9.790;2023-06-22T04:48:31;101428.91;;;25.17;100.00
51299;BME280;37382;45.192;9.790;2023-06-22T04:51:01;101419.44;;;25.08;100.00
51299;BME280;37382;45.192;9.790;2023-06-22T04:53:32;101419.44;;;25.08;100.00
51299;BME280;37382;45.192;9.790;2023-06-22T04:55:59;101424.72;;;25.25;100.00
51299;BME280;37382;45.192;9.790;2023-06-22T04:58:27;101426.09;;;25.17;100.00
51299;BME280;37382;45.192;9.790;2023-06-22T05:00:56;101436.09;;;25.18;100.00
51299;BME280;37382;45.192;9.790;2023-06-22T05:03:25;101432.19;;;25.61;100.00
51299;BME280;37382;45.192;9.790;2023-06-22T05:05:53;101430.97;;;25.92;100.00
51299;BME280;37382;45.192;9.790;2023-06-22T05:08:21;101430.53;;;25.44;100.00
51299;BME280;37382;45.192;9.790;2023-06-22T05:10:48;101438.63;;;24.89;100.00
51299;BME280;37382;45.192;9.790;2023-06-22T05:13:31;101426.38;;;25.21;100.00
51299;BME280;37382;45.192;9.790;2023-06-22T05:15:59;101422.75;;;25.26;100.00
51299;BME280;37382;45.192;9.790;2023-06-22T05:18:30;101444.50;;;25.08;100.00
51299;BME280;37382;45.192;9.790;2023-06-22T05:20:58;101449.19;;;25.08;100.00
51299;BME280;37382;45.192;9.790;2023-06-22T05:23:26;101439.72;;;24.62;100.00
51299;BME280;37382;45.192;9.790;2023-06-22T05:25:54;101444.97;;;24.54;100.00
51299;BME280;37382;45.192;9.790;2023-06-22T05:28:24;101444.59;;;24.29;100.00
51299;BME280;37382;45.192;9.790;2023-06-22T05:30:52;101441.13;;;24.85;100.00
51299;BME280;37382;45.192;9.790;2023-06-22T05:33:20;101432.78;;;25.21;100.00
51299;BME280;37382;45.192;9.790;2023-06-22T05:35:47;101423.31;;;25.38;100.00
51299;BME280;37382;45.192;9.790;2023-06-22T05:38:15;101432.47;;;25.49;100.00
51299;BME280;37382;45.192;9.790;2023-06-22T05:40:42;101428.03;;;25.43;100.00
51299;BME280;37382;45.192;9.790;2023-06-22T05:43:10;101420.41;;;25.79;100.00
51299;BME280;37382;45.192;9.790;2023-06-22T05:45:37;101415.41;;;25.81;100.00
51299;BME280;37382;45.192;9.790;2023-06-22T05:48:05;101412.84;;;25.90;100.00
51299;BME280;37382;45.192;9.790;2023-06-22T05:50:33;101421.09;;;25.45;100.00
51299;BME280;37382;45.192;9.790;2023-06-22T05:53:00;101430.81;;;25.17;100.00
51299;BME280;37382;45.192;9.790;2023-06-22T05:55:28;101442.25;;;24.90;100.00
51299;BME280;37382;45.192;9.790;2023-06-22T05:57:55;101454.22;;;24.75;100.00
51299;BME280;37382;45.192;9.790;2023-06-22T06:00:23;101454.50;;;24.73;100.00
51299;BME280;37382;45.192;9.790;2023-06-22T06:02:51;101459.22;;;24.83;100.00
51299;BME280;37382;45.192;9.790;2023-06-22T06:05:19;101463.69;;;24.89;100.00
51299;BME280;37382;45.192;9.790;2023-06-22T06:07:48;101463.69;;;25.04;100.00
51299;BME280;37382;45.192;9.790;2023-06-22T06:10:15;101462.03;;;25.09;100.00
51299;BME280;37382;45.192;9.790;2023-06-22T06:12:43;101467.31;;;25.20;100.00
51299;BME280;37382;45.192;9.790;2023-06-22T06:15:10;101470.91;;;25.11;100.00
51299;BME280;37382;45.192;9.790;2023-06-22T06:17:49;101467.84;;;25.12;100.00
51299;BME280;37382;45.192;9.790;2023-06-22T06:20:22;101475.38;;;25.12;100.00
51299;BME280;37382;45.192;9.790;2023-06-22T06:22:50;101481.78;;;25.53;100.00
51299;BME280;37382;45.192;9.790;2023-06-22T06:25:18;101484.84;;;25.52;100.00
51299;BME280;37382;45.192;9.790;2023-06-22T06:27:51;101480.09;;;25.78;100.00
51299;BME280;37382;45.192;9.790;2023-06-22T06:30:19;101483.09;;;25.97;100.00
51299;BME280;37382;45.192;9.790;2023-06-22T06:32:46;101490.41;;;25.67;100.00
51299;BME280;37382;45.192;9.790;2023-06-22T06:35:15;101485.09;;;25.81;100.00
51299;BME280;37382;45.192;9.790;2023-06-22T06:37:48;101480.66;;;25.75;100.00
51299;BME280;37382;45.192;9.790;2023-06-22T06:40:17;101480.06;;;25.83;100.00
51299;BME280;37382;45.192;9.790;2023-06-22T06:42:47;101474.97;;;26.11;100.00
51299;BME280;37382;45.192;9.790;2023-06-22T06:45:21;101473.31;;;26.10;100.00
51299;BME280;37382;45.192;9.790;2023-06-22T06:47:51;101481.41;;;26.61;100.00
51299;BME280;37382;45.192;9.790;2023-06-22T06:50:19;101491.91;;;26.30;100.00
51299;BME280;37382;45.192;9.790;2023-06-22T06:52:47;101491.22;;;26.54;100.00
51299;BME280;37382;45.192;9.790;2023-06-22T06:55:17;101487.16;;;26.31;100.00
51299;BME280;37382;45.192;9.790;2023-06-22T06:57:44;101501.19;;;26.15;100.00
51299;BME280;37382;45.192;9.790;2023-06-22T07:00:16;101512.38;;;26.70;100.00
51299;BME280;37382;45.192;9.790;2023-06-22T07:02:44;101501.09;;;26.36;100.00
51299;BME280;37382;45.192;9.790;2023-06-22T07:05:13;101508.25;;;26.57;100.00
51299;BME280;37382;45.192;9.790;2023-06-22T07:07:41;101495.56;;;26.25;100.00
51299;BME280;37382;45.192;9.790;2023-06-22T07:10:10;101485.94;;;26.57;100.00
51299;BME280;37382;45.192;9.790;2023-06-22T07:12:38;101481.84;;;26.39;100.00
51299;BME280;37382;45.192;9.790;2023-06-22T07:15:08;101489.44;;;26.18;100.00
51299;BME280;37382;45.192;9.790;2023-06-22T07:17:37;101498.69;;;26.08;100.00
51299;BME280;37382;45.192;9.790;2023-06-22T07:20:05;101487.38;;;26.50;100.00
51299;BME280;37382;45.192;9.790;2023-06-22T07:22:39;101473.75;;;26.33;100.00
51299;BME280;37382;45.192;9.790;2023-06-22T07:25:07;101481.84;;;26.89;100.00
51299;BME280;37382;45.192;9.790;2023-06-22T07:27:46;101479.94;;;26.79;100.00
51299;BME280;37382;45.192;9.790;2023-06-22T07:30:23;101471.13;;;27.02;100.00
51299;BME280;37382;45.192;9.790;2023-06-22T07:32:51;101461.25;;;26.80;100.00
51299;BME280;37382;45.192;9.790;2023-06-22T07:35:19;101458.44;;;27.20;100.00
51299;BME280;37382;45.192;9.790;2023-06-22T07:37:47;101460.88;;;27.56;100.00
51299;BME280;37382;45.192;9.790;2023-06-22T07:40:14;101460.56;;;27.62;100.00
51299;BME280;37382;45.192;9.790;2023-06-22T07:42:42;101458.81;;;27.66;100.00
51299;BME280;37382;45.192;9.790;2023-06-22T07:45:09;101449.72;;;27.80;100.00
51299;BME280;37382;45.192;9.790;2023-06-22T07:47:37;101449.47;;;27.52;100.00
51299;BME280;37382;45.192;9.790;2023-06-22T07:50:05;101451.63;;;27.60;100.00
51299;BME280;37382;45.192;9.790;2023-06-22T07:52:33;101447.81;;;27.75;100.00
51299;BME280;37382;45.192;9.790;2023-06-22T07:55:00;101447.81;;;27.75;100.00
51299;BME280;37382;45.192;9.790;2023-06-22T07:57:29;101445.81;;;27.81;100.00
51299;BME280;37382;45.192;9.790;2023-06-22T08:00:03;101452.31;;;28.00;100.00
51299;BME280;37382;45.192;9.790;2023-06-22T08:02:44;101450.44;;;27.66;100.00
51299;BME280;37382;45.192;9.790;2023-06-22T08:05:14;101442.22;;;28.24;100.00
51299;BME280;37382;45.192;9.790;2023-06-22T08:07:49;101427.59;;;28.08;100.00
51299;BME280;37382;45.192;9.790;2023-06-22T08:10:17;101432.72;;;28.44;100.00
51299;BME280;37382;45.192;9.790;2023-06-22T08:12:45;101416.34;;;28.32;100.00
51299;BME280;37382;45.192;9.790;2023-06-22T08:15:12;101403.09;;;28.95;100.00
51299;BME280;37382;45.192;9.790;2023-06-22T08:17:40;101406.59;;;29.19;100.00
51299;BME280;37382;45.192;9.790;2023-06-22T08:20:08;101390.25;;;29.40;100.00
51299;BME280;37382;45.192;9.790;2023-06-22T08:22:41;101393.13;;;29.21;100.00
51299;BME280;37382;45.192;9.790;2023-06-22T08:25:12;101397.19;;;28.96;100.00
51299;BME280;37382;45.192;9.790;2023-06-22T08:27:44;101415.59;;;28.83;100.00
51299;BME280;37382;45.192;9.790;2023-06-22T08:30:13;101425.34;;;29.19;100.00
51299;BME280;37382;45.192;9.790;2023-06-22T08:32:41;101424.38;;;28.96;100.00
51299;BME280;37382;45.192;9.790;2023-06-22T08:35:08;101414.38;;;28.89;100.00
51299;BME280;37382;45.192;9.790;2023-06-22T08:37:37;101405.47;;;29.20;100.00
51299;BME280;37382;45.192;9.790;2023-06-22T08:40:09;101403.44;;;29.54;99.55
51299;BME280;37382;45.192;9.790;2023-06-22T08:42:39;101414.16;;;29.66;98.79
51299;BME280;37382;45.192;9.790;2023-06-22T08:45:08;101418.06;;;29.51;97.65
51299;BME280;37382;45.192;9.790;2023-06-22T08:47:35;101430.00;;;29.09;98.69
51299;BME280;37382;45.192;9.790;2023-06-22T08:50:03;101429.28;;;29.37;99.63
51299;BME280;37382;45.192;9.790;2023-06-22T08:52:31;101419.25;;;29.17;99.17
51299;BME280;37382;45.192;9.790;2023-06-22T08:54:59;101414.56;;;29.45;100.00
51299;BME280;37382;45.192;9.790;2023-06-22T08:57:27;101434.66;;;29.33;96.76
51299;BME280;37382;45.192;9.790;2023-06-22T08:59:55;101436.28;;;29.20;97.54
51299;BME280;37382;45.192;9.790;2023-06-22T09:02:26;101429.81;;;28.87;100.00
51299;BME280;37382;45.192;9.790;2023-06-22T09:04:58;101430.69;;;28.68;100.00
51299;BME280;37382;45.192;9.790;2023-06-22T09:07:26;101428.84;;;28.78;100.00
51299;BME280;37382;45.192;9.790;2023-06-22T09:09:53;101426.78;;;29.35;100.00
51299;BME280;37382;45.192;9.790;2023-06-22T09:12:20;101439.31;;;29.24;97.92
51299;BME280;37382;45.192;9.790;2023-06-22T09:14:53;101445.94;;;28.95;99.70
51299;BME280;37382;45.192;9.790;2023-06-22T09:17:22;101438.97;;;28.92;98.86
51299;BME280;37382;45.192;9.790;2023-06-22T09:19:49;101434.19;;;28.93;100.00
51299;BME280;37382;45.192;9.790;2023-06-22T09:22:18;101434.25;;;29.26;100.00
51299;BME280;37382;45.192;9.790;2023-06-22T09:24:45;101433.03;;;29.13;98.82
51299;BME280;37382;45.192;9.790;2023-06-22T09:27:13;101434.34;;;29.21;96.16
51299;BME280;37382;45.192;9.790;2023-06-22T09:29:40;101433.81;;;29.33;100.00
51299;BME280;37382;45.192;9.790;2023-06-22T09:32:08;101427.41;;;29.32;94.96
51299;BME280;37382;45.192;9.790;2023-06-22T09:34:36;101421.09;;;29.54;93.38
51299;BME280;37382;45.192;9.790;2023-06-22T09:37:04;101408.34;;;29.48;89.29
51299;BME280;37382;45.192;9.790;2023-06-22T09:39:32;101405.84;;;29.60;88.07
51299;BME280;37382;45.192;9.790;2023-06-22T09:41:59;101401.94;;;29.89;85.31
51299;BME280;37382;45.192;9.790;2023-06-22T09:44:29;101396.50;;;29.79;83.67
51299;BME280;37382;45.192;9.790;2023-06-22T09:46:57;101394.22;;;29.95;83.12
51299;BME280;37382;45.192;9.790;2023-06-22T09:49:25;101387.38;;;29.87;83.38
51299;BME280;37382;45.192;9.790;2023-06-22T09:52:13;101381.84;;;29.96;83.26
51299;BME280;37382;45.192;9.790;2023-06-22T09:54:40;101383.63;;;30.42;79.53
51299;BME280;37382;45.192;9.790;2023-06-22T09:57:08;101385.38;;;30.52;80.29
51299;BME280;37382;45.192;9.790;2023-06-22T09:59:35;101380.34;;;30.63;82.22
51299;BME280;37382;45.192;9.790;2023-06-22T10:02:03;101382.38;;;30.71;82.39
51299;BME280;37382;45.192;9.790;2023-06-22T10:04:31;101375.09;;;30.70;80.04
51299;BME280;37382;45.192;9.790;2023-06-22T10:07:00;101370.00;;;30.72;80.39
51299;BME280;37382;45.192;9.790;2023-06-22T10:09:28;101377.00;;;30.83;77.43
51299;BME280;37382;45.192;9.790;2023-06-22T10:11:55;101362.34;;;30.64;78.57
51299;BME280;37382;45.192;9.790;2023-06-22T10:14:23;101363.59;;;31.03;76.77
51299;BME280;37382;45.192;9.790;2023-06-22T10:16:52;101361.44;;;31.00;75.31
51299;BME280;37382;45.192;9.790;2023-06-22T10:19:20;101343.97;;;31.43;73.97
51299;BME280;37382;45.192;9.790;2023-06-22T10:21:47;101347.19;;;31.68;72.21
51299;BME280;37382;45.192;9.790;2023-06-22T10:24:15;101338.63;;;31.33;74.88
51299;BME280;37382;45.192;9.790;2023-06-22T10:26:42;101341.09;;;31.74;71.41
51299;BME280;37382;45.192;9.790;2023-06-22T10:29:10;101342.97;;;31.48;72.33
51299;BME280;37382;45.192;9.790;2023-06-22T10:31:43;101347.63;;;31.12;74.60
51299;BME280;37382;45.192;9.790;2023-06-22T10:34:10;101328.78;;;31.13;75.83
51299;BME280;37382;45.192;9.790;2023-06-22T10:36:38;101332.34;;;31.36;75.32
51299;BME280;37382;45.192;9.790;2023-06-22T10:39:06;101314.66;;;31.84;75.28
51299;BME280;37382;45.192;9.790;2023-06-22T10:41:35;101314.81;;;32.58;75.87
51299;BME280;37382;45.192;9.790;2023-06-22T10:44:03;101310.72;;;32.38;72.01
51299;BME280;37382;45.192;9.790;2023-06-22T10:46:31;101310.19;;;32.53;73.38
51299;BME280;37382;45.192;9.790;2023-06-22T10:48:58;101304.13;;;33.46;70.02
51299;BME280;37382;45.192;9.790;2023-06-22T10:51:26;101297.66;;;32.98;71.89
51299;BME280;37382;45.192;9.790;2023-06-22T10:53:55;101293.88;;;32.94;70.13
51299;BME280;37382;45.192;9.790;2023-06-22T10:56:22;101282.97;;;34.03;67.20
51299;BME280;37382;45.192;9.790;2023-06-22T10:58:50;101281.41;;;34.14;65.84
51299;BME280;37382;45.192;9.790;2023-06-22T11:01:18;101269.38;;;34.26;62.24
51299;BME280;37382;45.192;9.790;2023-06-22T11:04:01;101259.75;;;34.18;65.02
51299;BME280;37382;45.192;9.790;2023-06-22T11:06:29;101263.53;;;34.77;62.91
51299;BME280;37382;45.192;9.790;2023-06-22T11:08:56;101256.25;;;35.13;59.66
51299;BME280;37382;45.192;9.790;2023-06-22T11:11:43;101258.03;;;35.18;56.19
51299;BME280;37382;45.192;9.790;2023-06-22T11:14:11;101261.84;;;34.76;55.63
51299;BME280;37382;45.192;9.790;2023-06-22T11:16:39;101248.94;;;34.42;54.64
51299;BME280;37382;45.192;9.790;2023-06-22T11:19:06;101240.44;;;34.29;59.62
51299;BME280;37382;45.192;9.790;2023-06-22T11:21:34;101229.56;;;33.98;58.46
51299;BME280;37382;45.192;9.790;2023-06-22T11:24:02;101231.31;;;34.24;59.25
51299;BME280;37382;45.192;9.790;2023-06-22T11:26:30;101225.63;;;34.32;61.34
51299;BME280;37382;45.192;9.790;2023-06-22T11:28:59;101227.59;;;34.32;61.64
51299;BME280;37382;45.192;9.790;2023-06-22T11:31:27;101230.75;;;34.30;60.90
51299;BME280;37382;45.192;9.790;2023-06-22T11:33:54;101232.91;;;34.33;61.81
51299;BME280;37382;45.192;9.790;2023-06-22T11:36:22;101232.59;;;34.60;60.81
51299;BME280;37382;45.192;9.790;2023-06-22T11:38:49;101231.38;;;35.06;58.41
51299;BME280;37382;45.192;9.790;2023-06-22T11:41:18;101231.28;;;34.90;58.65
51299;BME280;37382;45.192;9.790;2023-06-22T11:43:46;101226.94;;;35.05;58.64
51299;BME280;37382;45.192;9.790;2023-06-22T11:46:14;101222.31;;;34.88;58.46
51299;BME280;37382;45.192;9.790;2023-06-22T11:48:41;101225.72;;;34.94;57.89
51299;BME280;37382;45.192;9.790;2023-06-22T11:51:09;101217.00;;;34.99;56.36
51299;BME280;37382;45.192;9.790;2023-06-22T11:53:36;101222.69;;;35.12;54.55
51299;BME280;37382;45.192;9.790;2023-06-22T11:56:04;101212.28;;;35.28;54.63
51299;BME280;37382;45.192;9.790;2023-06-22T11:58:33;101212.28;;;35.28;54.79
51299;BME280;37382;45.192;9.790;2023-06-22T12:01:00;101214.19;;;35.12;53.35
51299;BME280;37382;45.192;9.790;2023-06-22T12:03:28;101219.38;;;34.85;53.51
51299;BME280;37382;45.192;9.790;2023-06-22T12:05:56;101210.78;;;35.31;52.98
51299;BME280;37382;45.192;9.790;2023-06-22T12:08:23;101211.75;;;35.63;53.91
51299;BME280;37382;45.192;9.790;2023-06-22T12:10:52;101219.81;;;36.02;52.56
51299;BME280;37382;45.192;9.790;2023-06-22T12:13:21;101208.31;;;35.82;51.67
51299;BME280;37382;45.192;9.790;2023-06-22T12:15:48;101199.00;;;35.16;53.73
51299;BME280;37382;45.192;9.790;2023-06-22T12:18:16;101196.00;;;35.90;52.50
51299;BME280;37382;45.192;9.790;2023-06-22T12:20:43;101208.13;;;36.19;53.07
51299;BME280;37382;45.192;9.790;2023-06-22T12:23:12;101197.31;;;36.37;50.60
51299;BME280;37382;45.192;9.790;2023-06-22T12:25:39;101203.56;;;36.59;50.15
51299;BME280;37382;45.192;9.790;2023-06-22T12:28:06;101207.16;;;36.88;50.15
51299;BME280;37382;45.192;9.790;2023-06-22T12:30:34;101202.66;;;36.86;49.78
51299;BME280;37382;45.192;9.790;2023-06-22T12:33:02;101200.00;;;36.62;49.91
51299;BME280;37382;45.192;9.790;2023-06-22T12:35:29;101182.94;;;35.86;50.43
51299;BME280;37382;45.192;9.790;2023-06-22T12:37:57;101190.78;;;35.64;51.10
51299;BME280;37382;45.192;9.790;2023-06-22T12:40:24;101191.09;;;34.85;53.89
51299;BME280;37382;45.192;9.790;2023-06-22T12:42:52;101193.81;;;35.84;51.92
51299;BME280;37382;45.192;9.790;2023-06-22T12:45:19;101186.59;;;35.74;51.94
51299;BME280;37382;45.192;9.790;2023-06-22T12:47:48;101192.97;;;36.11;51.16
51299;BME280;37382;45.192;9.790;2023-06-22T12:50:17;101186.09;;;35.56;50.55
51299;BME280;37382;45.192;9.790;2023-06-22T12:52:44;101185.78;;;35.33;50.49
51299;BME280;37382;45.192;9.790;2023-06-22T12:55:12;101187.88;;;35.48;51.42